Time;durP1;ratioP1;P1;durP2;ratioP2;P2;SDS_P1;SDS_P2;PMS_P1;PMS_P2;Temp;Humidity;BMP_temperature;BMP_pressure;BME280_temperature;BME280_humidity;BME280_pressure;Samples;Min_cycle;Max_cycle;Signal;HPM_P1;HPM_P2
2023/01/12 00:01:07;;;;;;;6.55;1.85;;;9.50;99.90;;;;;;5072501;28;20685;-43
2023/01/12 00:03:32;;;;;;;5.93;2.15;;;9.50;99.90;;;;;;5072555;28;20765;-44
2023/01/12 00:06:06;;;;;;;2.97;1.38;;;9.50;99.90;;;;;;5072715;28;20261;-43
2023/01/12 00:08:33;;;;;;;4.50;1.50;;;9.50;99.90;;;;;;5072739;28;20170;-44
2023/01/12 00:10:58;;;;;;;3.80;1.38;;;9.50;99.90;;;;;;5072251;28;20170;-44
2023/01/12 00:13:24;;;;;;;10.85;1.67;;;9.50;99.90;;;;;;5072260;28;20196;-43
2023/01/12 00:18:34;;;;;;;7.65;1.73;;;9.40;99.90;;;;;;5073384;28;20592;-44
2023/01/12 00:20:59;;;;;;;9.82;1.88;;;9.40;99.90;;;;;;5074303;28;20630;-44
2023/01/12 00:23:25;;;;;;;10.32;2.17;;;9.40;99.90;;;;;;5073734;28;20184;-44
2023/01/12 00:25:51;;;;;;;3.83;1.08;;;9.40;99.90;;;;;;5073600;28;20170;-46
2023/01/12 00:28:17;;;;;;;6.22;2.45;;;9.40;99.90;;;;;;5073751;28;20166;-44
2023/01/12 00:30:43;;;;;;;5.38;1.50;;;9.30;99.90;;;;;;5073428;28;20650;-44
2023/01/12 00:33:08;;;;;;;7.38;2.35;;;9.30;99.90;;;;;;5073687;28;20178;-44
2023/01/12 00:35:35;;;;;;;5.05;1.50;;;9.40;99.90;;;;;;5073362;28;20257;-43
2023/01/12 00:38:01;;;;;;;4.95;1.73;;;9.30;99.90;;;;;;5073993;28;20170;-43
2023/01/12 00:40:26;;;;;;;4.28;1.65;;;9.40;99.90;;;;;;5073255;28;20173;-44
2023/01/12 00:45:36;;;;;;;5.75;2.28;;;9.40;99.90;;;;;;5073005;28;20647;-44
2023/01/12 00:48:01;;;;;;;4.13;2.20;;;9.40;99.90;;;;;;5073480;28;20169;-43
2023/01/12 00:50:27;;;;;;;5.88;1.70;;;9.40;99.90;;;;;;5072987;28;20250;-43
2023/01/12 00:52:53;;;;;;;4.28;1.75;;;9.40;99.90;;;;;;5073134;28;20165;-44
2023/01/12 00:55:18;;;;;;;7.43;1.98;;;9.40;99.90;;;;;;5072966;28;20170;-43
2023/01/12 00:57:44;;;;;;;7.32;1.90;;;9.40;99.90;;;;;;5072874;28;20170;-43
2023/01/12 01:00:10;;;;;;;5.40;1.70;;;9.40;99.90;;;;;;5073059;28;20170;-43
2023/01/12 01:02:36;;;;;;;4.57;1.45;;;9.40;99.90;;;;;;5072134;28;20292;-43
2023/01/12 01:05:01;;;;;;;4.32;1.30;;;9.40;99.90;;;;;;5073163;28;20193;-44
2023/01/12 01:07:27;;;;;;;8.18;2.00;;;9.30;99.90;;;;;;5071473;28;20177;-43
2023/01/12 01:09:52;;;;;;;6.10;1.73;;;9.40;99.90;;;;;;5072514;28;20209;-43
2023/01/12 01:12:18;;;;;;;5.68;1.42;;;9.40;99.90;;;;;;5072548;28;20167;-43
2023/01/12 01:14:45;;;;;;;3.35;1.83;;;9.30;99.90;;;;;;5072647;28;20174;-44
2023/01/12 01:17:10;;;;;;;12.40;2.45;;;9.40;99.90;;;;;;5072590;28;20166;-43
2023/01/12 01:19:36;;;;;;;4.85;1.60;;;9.30;99.90;;;;;;5072528;28;20194;-43
2023/01/12 01:22:01;;;;;;;12.75;1.95;;;9.30;99.90;;;;;;5072802;28;20154;-43
2023/01/12 01:24:27;;;;;;;11.55;2.60;;;9.20;99.90;;;;;;5072543;28;20564;-43
2023/01/12 01:26:52;;;;;;;8.07;2.05;;;9.30;99.90;;;;;;5072618;28;20166;-43
2023/01/12 01:29:18;;;;;;;7.20;1.65;;;9.30;99.90;;;;;;5072251;28;20209;-43
2023/01/12 01:31:46;;;;;;;14.77;2.40;;;9.30;99.90;;;;;;5072491;28;20173;-43
2023/01/12 01:34:12;;;;;;;4.25;1.75;;;9.30;99.90;;;;;;5072366;28;20166;-43
2023/01/12 01:36:37;;;;;;;7.13;2.00;;;9.30;99.90;;;;;;5072308;28;20642;-44
2023/01/12 01:39:04;;;;;;;4.72;1.73;;;9.30;99.90;;;;;;5072493;28;20314;-43
2023/01/12 01:41:31;;;;;;;7.75;1.85;;;9.30;99.90;;;;;;5072810;28;20170;-43
2023/01/12 01:44:03;;;;;;;7.55;1.70;;;9.30;99.90;;;;;;5072146;28;20260;-43
2023/01/12 01:46:41;;;;;;;7.72;1.75;;;9.30;99.90;;;;;;5072685;28;20166;-43
2023/01/12 01:49:42;;;;;;;8.38;2.45;;;9.30;99.90;;;;;;5071999;28;20676;-43
2023/01/12 01:52:22;;;;;;;6.78;2.25;;;9.30;99.90;;;;;;5072037;28;20169;-43
2023/01/12 01:54:59;;;;;;;7.97;1.98;;;9.30;99.90;;;;;;5072011;28;20172;-43
2023/01/12 01:57:47;;;;;;;14.98;2.92;;;9.40;99.90;;;;;;5071643;28;20177;-43
2023/01/12 02:00:13;;;;;;;9.48;2.10;;;9.40;99.90;;;;;;5071429;28;20225;-43
2023/01/12 02:02:42;;;;;;;12.65;2.42;;;9.40;99.90;;;;;;5071808;28;20205;-43
2023/01/12 02:05:10;;;;;;;6.15;2.20;;;9.40;99.90;;;;;;5071420;28;20162;-43
2023/01/12 02:07:36;;;;;;;8.38;2.08;;;9.40;99.90;;;;;;5072092;28;20533;-43
2023/01/12 02:10:02;;;;;;;6.78;1.38;;;9.40;99.90;;;;;;5071995;28;20292;-43
2023/01/12 02:18:12;;;;;;;16.50;3.22;;;9.50;99.90;;;;;;5071898;28;20173;-43
2023/01/12 02:20:49;;;;;;;6.22;1.98;;;9.50;99.90;;;;;;5071681;28;20169;-43
2023/01/12 02:23:31;;;;;;;11.02;2.20;;;9.50;99.90;;;;;;5071761;28;20176;-43
2023/01/12 02:26:35;;;;;;;6.70;1.90;;;9.50;99.90;;;;;;5071628;28;20162;-43
2023/01/12 02:29:46;;;;;;;6.22;1.45;;;9.60;99.90;;;;;;5072127;28;20205;-43
2023/01/12 02:32:36;;;;;;;13.43;2.65;;;9.60;99.90;;;;;;5071574;28;20212;-43
2023/01/12 02:35:25;;;;;;;14.52;2.72;;;9.60;99.90;;;;;;5072024;28;20161;-43
2023/01/12 02:38:02;;;;;;;6.70;2.00;;;9.60;99.90;;;;;;5071550;28;20193;-43
2023/01/12 02:40:51;;;;;;;9.20;1.85;;;9.60;99.90;;;;;;5071924;28;20172;-43
2023/01/12 02:43:25;;;;;;;3.90;1.63;;;9.60;99.90;;;;;;5071696;28;20170;-43
2023/01/12 02:46:10;;;;;;;11.25;2.15;;;9.60;99.90;;;;;;5071389;28;20157;-43
2023/01/12 02:48:39;;;;;;;8.68;1.75;;;9.60;99.90;;;;;;5071281;28;20664;-43
2023/01/12 02:51:17;;;;;;;14.18;2.40;;;9.60;99.90;;;;;;5071665;28;20178;-43
2023/01/12 02:53:49;;;;;;;11.32;2.20;;;9.70;99.90;;;;;;5071338;28;20630;-43
2023/01/12 02:56:21;;;;;;;6.88;2.13;;;9.60;99.90;;;;;;5071607;28;20517;-43
2023/01/12 02:58:53;;;;;;;12.82;2.40;;;9.60;99.90;;;;;;5071270;28;20159;-43
2023/01/12 03:01:20;;;;;;;7.88;1.85;;;9.60;99.90;;;;;;5071402;28;20197;-43
2023/01/12 03:03:48;;;;;;;5.88;2.47;;;9.60;99.90;;;;;;5071050;28;20222;-43
2023/01/12 03:06:16;;;;;;;9.95;2.17;;;9.50;99.90;;;;;;5071273;28;20178;-43
2023/01/12 03:08:43;;;;;;;6.88;1.23;;;9.50;99.90;;;;;;5072385;28;20223;-43
2023/01/12 03:11:21;;;;;;;3.28;1.17;;;9.40;99.90;;;;;;5075067;28;20176;-43
2023/01/12 03:13:54;;;;;;;12.00;2.63;;;9.40;99.90;;;;;;5074929;28;20593;-43
2023/01/12 03:16:24;;;;;;;11.07;2.65;;;9.40;99.90;;;;;;5074834;28;20174;-43
2023/01/12 03:19:08;;;;;;;6.80;1.40;;;9.40;99.90;;;;;;5075100;28;20181;-43
2023/01/12 03:21:37;;;;;;;8.88;2.05;;;9.30;99.90;;;;;;5074664;28;20571;-43
2023/01/12 03:24:07;;;;;;;8.73;2.25;;;9.40;99.90;;;;;;5074749;28;20572;-43
2023/01/12 03:26:37;;;;;;;6.55;1.77;;;9.40;99.90;;;;;;5074632;28;20510;-43
2023/01/12 03:29:11;;;;;;;13.63;2.13;;;9.30;99.90;;;;;;5074586;28;20205;-43
2023/01/12 03:31:37;;;;;;;9.70;2.35;;;9.30;99.90;;;;;;5074642;28;20162;-43
2023/01/12 03:34:03;;;;;;;8.20;1.90;;;9.30;99.90;;;;;;5074695;28;20259;-44
2023/01/12 03:37:06;;;;;;;8.70;2.45;;;9.30;99.90;;;;;;5074993;28;20244;-43
2023/01/12 03:39:44;;;;;;;7.32;1.70;;;9.30;99.90;;;;;;5074830;28;20174;-43
2023/01/12 03:42:20;;;;;;;5.03;1.17;;;9.30;99.90;;;;;;5074526;28;20215;-43
2023/01/12 03:44:58;;;;;;;7.82;2.05;;;9.30;99.90;;;;;;5074687;28;20220;-43
2023/01/12 03:47:28;;;;;;;4.50;1.80;;;9.30;99.90;;;;;;5074447;28;20166;-43
2023/01/12 03:49:58;;;;;;;4.20;1.10;;;9.30;99.90;;;;;;5074393;28;20218;-43
2023/01/12 03:52:26;;;;;;;4.85;1.50;;;9.30;99.90;;;;;;5074288;28;20201;-43
2023/01/12 03:54:55;;;;;;;6.20;1.58;;;9.30;99.90;;;;;;5074472;28;20627;-43
2023/01/12 03:57:21;;;;;;;3.92;1.10;;;9.30;99.90;;;;;;5074341;28;20632;-43
2023/01/12 03:59:47;;;;;;;6.22;1.33;;;9.40;99.90;;;;;;5074104;28;20166;-43
2023/01/12 04:02:13;;;;;;;5.30;1.20;;;9.40;99.90;;;;;;5073952;28;20578;-43
2023/01/12 04:04:39;;;;;;;5.97;1.30;;;9.40;99.90;;;;;;5074432;28;20529;-43
2023/01/12 04:07:05;;;;;;;7.10;2.00;;;9.50;99.90;;;;;;5074009;28;20173;-43
2023/01/12 04:09:30;;;;;;;8.38;1.38;;;9.50;99.90;;;;;;5074156;28;20202;-44
2023/01/12 04:12:11;;;;;;;7.13;1.77;;;9.50;99.90;;;;;;5073926;28;20201;-43
2023/01/12 04:14:39;;;;;;;7.93;2.03;;;9.50;99.90;;;;;;5073936;28;20158;-43
2023/01/12 04:17:05;;;;;;;4.32;1.17;;;9.40;99.90;;;;;;5074003;28;20512;-43
2023/01/12 04:19:30;;;;;;;8.18;1.85;;;9.50;99.90;;;;;;5074108;28;20177;-43
2023/01/12 04:24:40;;;;;;;4.13;1.50;;;9.50;99.90;;;;;;5073911;28;20529;-43
2023/01/12 04:27:06;;;;;;;2.20;0.88;;;9.50;99.90;;;;;;5073693;28;20162;-43
2023/01/12 04:29:31;;;;;;;6.30;1.55;;;9.50;99.90;;;;;;5073825;28;20573;-43
2023/01/12 04:31:57;;;;;;;5.20;1.83;;;9.50;99.90;;;;;;5073503;28;20275;-43
2023/01/12 04:34:22;;;;;;;3.30;1.42;;;9.50;99.90;;;;;;5073492;28;20176;-43
2023/01/12 04:36:48;;;;;;;5.28;1.55;;;9.50;99.90;;;;;;5073466;28;20197;-43
2023/01/12 04:39:14;;;;;;;7.13;1.65;;;9.40;99.90;;;;;;5073276;28;20177;-43
2023/01/12 04:41:39;;;;;;;5.13;1.48;;;9.40;99.90;;;;;;5073326;28;20248;-43
2023/01/12 04:44:05;;;;;;;1.67;1.10;;;9.40;99.90;;;;;;5073326;28;20174;-43
2023/01/12 04:46:30;;;;;;;3.47;1.10;;;9.40;99.90;;;;;;5073636;28;20166;-43
2023/01/12 04:48:56;;;;;;;7.97;1.48;;;9.40;99.90;;;;;;5071764;28;20208;-43
2023/01/12 04:51:21;;;;;;;4.57;1.48;;;9.40;99.90;;;;;;5073139;28;20174;-43
2023/01/12 04:53:48;;;;;;;1.98;1.00;;;9.40;99.90;;;;;;5073006;28;20278;-43
2023/01/12 04:56:14;;;;;;;3.70;1.23;;;9.40;99.90;;;;;;5072985;28;20630;-43
2023/01/12 04:58:41;;;;;;;4.93;1.25;;;9.40;99.90;;;;;;5073020;28;20624;-43
2023/01/12 05:01:18;;;;;;;5.20;1.42;;;9.40;99.90;;;;;;5073107;28;20211;-44
2023/01/12 05:03:44;;;;;;;3.72;1.17;;;9.40;99.90;;;;;;5072124;28;20227;-43
2023/01/12 05:06:10;;;;;;;2.47;1.13;;;9.40;99.90;;;;;;5073076;28;20252;-43
2023/01/12 05:11:25;;;;;;;3.72;1.13;;;9.30;99.90;;;;;;5072827;28;20189;-44
2023/01/12 05:13:50;;;;;;;3.58;1.23;;;9.40;99.90;;;;;;5054966;28;20219;-44
2023/01/12 05:16:17;;;;;;;2.33;0.85;;;9.30;99.90;;;;;;5072690;28;20202;-44
2023/01/12 05:18:44;;;;;;;3.17;1.15;;;9.30;99.90;;;;;;5072845;28;20169;-44
2023/01/12 05:21:11;;;;;;;6.82;1.60;;;9.30;99.90;;;;;;5072586;28;20544;-44
2023/01/12 05:23:36;;;;;;;4.28;1.25;;;9.30;99.90;;;;;;5071228;28;20177;-44
2023/01/12 05:26:03;;;;;;;0.73;0.68;;;9.30;99.90;;;;;;5072482;28;20170;-44
2023/01/12 05:28:31;;;;;;;4.40;1.05;;;9.30;99.90;;;;;;5072702;28;20173;-43
2023/01/12 05:31:11;;;;;;;2.50;1.63;;;9.20;99.90;;;;;;5072485;28;20202;-44
2023/01/12 05:33:38;;;;;;;10.00;0.93;;;9.20;99.90;;;;;;5071497;28;20166;-44
2023/01/12 05:36:12;;;;;;;5.35;1.45;;;9.20;99.90;;;;;;5072246;28;20181;-44
2023/01/12 05:38:38;;;;;;;4.30;1.45;;;9.20;99.90;;;;;;5072260;28;20154;-44
2023/01/12 05:41:06;;;;;;;1.75;0.80;;;9.20;99.90;;;;;;5072217;28;20185;-43
2023/01/12 05:43:50;;;;;;;5.65;1.30;;;9.20;99.90;;;;;;5072428;28;20648;-43
2023/01/12 05:46:27;;;;;;;1.95;0.98;;;9.20;99.90;;;;;;5072146;28;20178;-44
2023/01/12 05:48:55;;;;;;;3.08;1.10;;;9.10;99.90;;;;;;5072033;28;20219;-43
2023/01/12 05:51:21;;;;;;;3.03;0.88;;;9.10;99.90;;;;;;5071837;28;20178;-44
2023/01/12 05:53:47;;;;;;;2.53;0.77;;;9.10;99.90;;;;;;5071786;28;20593;-43
2023/01/12 05:56:25;;;;;;;1.30;0.82;;;9.10;99.90;;;;;;5071852;28;20170;-43
2023/01/12 05:58:55;;;;;;;2.05;1.38;;;9.10;99.90;;;;;;5071824;28;20252;-44
2023/01/12 06:01:21;;;;;;;4.53;1.40;;;9.10;99.90;;;;;;5071702;28;20162;-43
2023/01/12 06:03:53;;;;;;;1.23;0.85;;;9.00;99.90;;;;;;5070335;28;20273;-44
2023/01/12 06:06:20;;;;;;;3.72;1.67;;;9.00;99.90;;;;;;5072134;28;20169;-45
2023/01/12 06:08:46;;;;;;;2.80;1.27;;;9.10;99.90;;;;;;5071984;28;20173;-46
2023/01/12 06:13:58;;;;;;;2.28;1.38;;;9.10;99.90;;;;;;5072389;28;20213;-44
2023/01/12 06:16:24;;;;;;;4.28;0.93;;;9.00;99.90;;;;;;5071707;28;20162;-43
2023/01/12 06:18:50;;;;;;;1.92;0.93;;;9.20;99.90;;;;;;5071672;28;20162;-43
2023/01/12 06:21:15;;;;;;;0.98;0.50;;;9.10;99.90;;;;;;5071655;28;20537;-44
2023/01/12 06:23:41;;;;;;;2.45;1.10;;;9.10;99.90;;;;;;5071678;28;20197;-44
2023/01/12 06:26:07;;;;;;;1.95;0.93;;;9.10;99.90;;;;;;5071559;28;20166;-44
2023/01/12 06:28:35;;;;;;;2.08;0.60;;;9.10;99.90;;;;;;5071549;28;20169;-43
2023/01/12 06:31:04;;;;;;;1.92;0.57;;;9.10;99.90;;;;;;5072312;28;20212;-44
2023/01/12 06:33:30;;;;;;;1.40;0.95;;;9.20;99.90;;;;;;5072033;28;20158;-44
2023/01/12 06:35:55;;;;;;;4.45;1.35;;;9.20;99.90;;;;;;5071500;28;20642;-44
2023/01/12 06:38:23;;;;;;;3.03;1.20;;;9.20;99.90;;;;;;5071692;28;20172;-48
2023/01/12 06:40:49;;;;;;;12.25;1.73;;;9.20;99.90;;;;;;5071470;28;20170;-43
2023/01/12 06:43:14;;;;;;;6.28;0.80;;;9.20;99.90;;;;;;5072006;28;20294;-43
2023/01/12 06:45:40;;;;;;;3.50;0.82;;;9.20;99.90;;;;;;5075485;28;20174;-44
2023/01/12 06:48:06;;;;;;;2.60;0.80;;;9.30;99.90;;;;;;5075484;28;20243;-44
2023/01/12 06:50:32;;;;;;;5.65;1.35;;;9.30;99.90;;;;;;5075347;28;20237;-44
2023/01/12 06:52:59;;;;;;;3.97;1.27;;;9.20;99.90;;;;;;5075865;28;20215;-44
2023/01/12 06:55:25;;;;;;;2.20;0.88;;;9.20;99.90;;;;;;5075342;28;20320;-43
2023/01/12 06:57:50;;;;;;;1.38;0.85;;;9.30;99.90;;;;;;5075192;28;20630;-45
2023/01/12 07:00:16;;;;;;;3.33;1.05;;;9.30;99.90;;;;;;5075146;28;20173;-43
2023/01/12 07:02:42;;;;;;;4.53;1.13;;;9.30;99.90;;;;;;5074998;28;20243;-43
2023/01/12 07:05:07;;;;;;;1.77;0.93;;;9.30;99.90;;;;;;5075105;28;20714;-43
2023/01/12 07:07:33;;;;;;;2.40;0.88;;;9.40;99.90;;;;;;5075158;28;20227;-44
2023/01/12 07:09:59;;;;;;;4.93;1.10;;;9.40;99.90;;;;;;5075262;28;20206;-43
2023/01/12 07:12:24;;;;;;;5.30;1.90;;;9.40;99.90;;;;;;5075287;28;20177;-43
2023/01/12 07:14:50;;;;;;;3.95;1.10;;;9.40;99.90;;;;;;5074988;28;20166;-43
2023/01/12 07:17:15;;;;;;;2.53;0.95;;;9.40;99.90;;;;;;5074932;28;20173;-43
2023/01/12 07:19:42;;;;;;;6.88;1.92;;;9.40;99.90;;;;;;5075048;28;20177;-43
2023/01/12 07:22:07;;;;;;;8.10;1.20;;;9.50;99.90;;;;;;5075135;28;20206;-44
2023/01/12 07:24:33;;;;;;;2.58;0.95;;;9.40;99.90;;;;;;5074820;28;20196;-43
2023/01/12 07:27:00;;;;;;;5.50;1.40;;;9.50;99.90;;;;;;5075140;28;20170;-44
2023/01/12 07:29:25;;;;;;;5.68;1.30;;;9.50;99.90;;;;;;5074603;28;20232;-43
2023/01/12 07:31:51;;;;;;;3.00;0.80;;;9.50;99.90;;;;;;5074628;28;20197;-43
2023/01/12 07:34:17;;;;;;;12.93;1.73;;;9.60;99.90;;;;;;5074617;28;20172;-43
2023/01/12 07:36:42;;;;;;;9.00;1.33;;;9.60;99.90;;;;;;5074482;28;20656;-43
2023/01/12 07:39:09;;;;;;;4.80;1.10;;;9.50;99.90;;;;;;5074765;28;20220;-43
2023/01/12 07:44:19;;;;;;;2.80;1.00;;;9.60;99.90;;;;;;5074300;28;20687;-43
2023/01/12 07:46:44;;;;;;;4.57;1.23;;;9.60;99.90;;;;;;5074382;28;20170;-43
2023/01/12 07:49:10;;;;;;;3.58;1.00;;;9.60;99.90;;;;;;5074410;28;20284;-43
2023/01/12 07:51:35;;;;;;;3.83;0.80;;;9.60;99.90;;;;;;5074568;28;20532;-43
2023/01/12 07:54:01;;;;;;;4.45;1.27;;;9.60;99.90;;;;;;5074318;28;20625;-44
2023/01/12 07:56:26;;;;;;;4.07;0.98;;;9.60;99.90;;;;;;5073457;28;20622;-42
2023/01/12 07:58:52;;;;;;;5.30;1.20;;;9.60;99.90;;;;;;5070597;28;20182;-44
2023/01/12 08:01:18;;;;;;;4.32;1.02;;;9.70;99.90;;;;;;5072410;28;20173;-42
2023/01/12 08:03:43;;;;;;;1.38;0.60;;;9.70;99.90;;;;;;5071686;28;20300;-43
2023/01/12 08:06:09;;;;;;;3.22;0.95;;;9.60;99.90;;;;;;5072356;28;20526;-45
2023/01/12 08:08:35;;;;;;;1.27;0.52;;;9.60;99.90;;;;;;5072329;28;20202;-43
2023/01/12 08:11:02;;;;;;;3.45;0.93;;;9.60;99.90;;;;;;5072325;28;20654;-46
2023/01/12 08:13:27;;;;;;;1.20;0.68;;;9.60;99.90;;;;;;5072518;28;20162;-43
2023/01/12 08:15:53;;;;;;;2.92;1.10;;;9.60;99.90;;;;;;5071940;28;20162;-43
2023/01/12 08:18:22;;;;;;;3.35;0.88;;;9.60;99.90;;;;;;5072025;28;20617;-43
2023/01/12 08:20:48;;;;;;;1.08;0.63;;;9.60;99.90;;;;;;5071948;28;20180;-43
2023/01/12 08:23:22;;;;;;;4.25;1.20;;;9.60;99.90;;;;;;5072296;28;20256;-43
2023/01/12 08:25:55;;;;;;;2.58;1.00;;;9.60;99.90;;;;;;5071807;28;20633;-43
2023/01/12 08:28:25;;;;;;;0.70;0.70;;;9.60;99.90;;;;;;5072221;28;20292;-43
2023/01/12 08:30:51;;;;;;;2.90;1.00;;;9.60;99.90;;;;;;5071662;28;20245;-43
2023/01/12 08:33:17;;;;;;;2.83;0.77;;;9.70;99.90;;;;;;5071866;28;20180;-42
2023/01/12 08:35:45;;;;;;;3.35;0.73;;;9.70;99.90;;;;;;5071804;28;20178;-43
2023/01/12 08:38:11;;;;;;;2.30;1.00;;;9.70;99.90;;;;;;5072047;28;20186;-43
2023/01/12 08:46:08;;;;;;;1.13;1.02;;;9.80;99.90;;;;;;5071783;28;20173;-44
2023/01/12 08:48:34;;;;;;;4.45;0.70;;;9.80;99.90;;;;;;5071465;28;20162;-42
2023/01/12 08:51:00;;;;;;;1.08;0.60;;;9.80;99.90;;;;;;5071528;28;20568;-42
2023/01/12 08:53:26;;;;;;;1.42;0.90;;;9.80;99.90;;;;;;5071764;28;20861;-44
2023/01/12 08:55:52;;;;;;;0.98;0.65;;;9.90;99.90;;;;;;5071297;28;20249;-41
2023/01/12 08:58:18;;;;;;;3.60;0.90;;;9.70;99.90;;;;;;5071219;28;20162;-44
2023/01/12 09:00:43;;;;;;;2.38;1.13;;;9.80;99.90;;;;;;5071411;28;20510;-43
2023/01/12 09:03:09;;;;;;;1.42;0.77;;;9.80;99.90;;;;;;5070888;28;20218;-44
2023/01/12 09:05:34;;;;;;;1.73;0.85;;;9.90;99.90;;;;;;5071097;28;20166;-44
2023/01/12 09:08:00;;;;;;;4.10;0.63;;;9.90;99.90;;;;;;5071459;28;20178;-44
2023/01/12 09:10:26;;;;;;;3.92;0.93;;;9.00;99.90;;;;;;5071293;28;20209;-44
2023/01/12 09:12:52;;;;;;;3.00;1.05;;;9.90;99.90;;;;;;5071043;28;20656;-43
2023/01/12 09:15:18;;;;;;;0.90;0.73;;;10.00;99.90;;;;;;5071026;28;20249;-44
2023/01/12 09:17:44;;;;;;;0.32;0.28;;;10.00;99.90;;;;;;5071156;28;20245;-44
2023/01/12 09:20:11;;;;;;;4.07;0.55;;;10.00;99.90;;;;;;5070757;28;20254;-44
2023/01/12 09:22:36;;;;;;;2.30;0.60;;;10.10;99.90;;;;;;5070705;28;20661;-44
2023/01/12 09:25:02;;;;;;;1.10;0.70;;;10.00;99.90;;;;;;5070742;28;20174;-44
2023/01/12 09:27:28;;;;;;;0.32;0.32;;;10.00;99.90;;;;;;5071222;28;20170;-44
2023/01/12 09:29:53;;;;;;;0.65;0.30;;;10.10;99.90;;;;;;5070692;28;20206;-45
2023/01/12 09:32:19;;;;;;;0.90;0.38;;;10.00;99.90;;;;;;5070570;28;20174;-44
2023/01/12 09:34:47;;;;;;;2.70;0.90;;;10.10;99.90;;;;;;5070955;28;20186;-44
2023/01/12 09:37:13;;;;;;;0.60;0.52;;;10.10;99.90;;;;;;5070692;28;20209;-45
2023/01/12 09:39:38;;;;;;;3.30;1.08;;;10.10;99.90;;;;;;5070670;28;20197;-44
2023/01/12 09:47:51;;;;;;;4.15;0.63;;;10.10;99.90;;;;;;5070875;28;20268;-44
2023/01/12 09:50:30;;;;;;;2.00;0.70;;;10.10;99.90;;;;;;5070744;28;20202;-44
2023/01/12 09:53:05;;;;;;;2.78;1.10;;;10.10;99.90;;;;;;5070810;28;20166;-44
2023/01/12 09:55:58;;;;;;;1.27;0.77;;;10.20;99.90;;;;;;5070092;28;20699;-44
2023/01/12 09:58:23;;;;;;;0.40;0.35;;;10.10;99.90;;;;;;5051049;28;20677;-44
2023/01/12 10:00:51;;;;;;;4.93;0.98;;;10.20;99.90;;;;;;5070159;28;20169;-44
2023/01/12 10:03:34;;;;;;;3.30;1.42;;;10.20;99.90;;;;;;5070095;28;20694;-44
2023/01/12 10:06:00;;;;;;;7.95;1.25;;;10.20;99.90;;;;;;5068623;28;20684;-44
2023/01/12 10:08:49;;;;;;;0.88;0.57;;;11.80;99.90;;;;;;5070649;28;20676;-44
2023/01/12 10:11:33;;;;;;;3.17;0.93;;;10.30;99.90;;;;;;5068139;28;20206;-44
2023/01/12 10:14:13;;;;;;;2.55;0.90;;;10.30;99.90;;;;;;5070275;28;20633;-44
2023/01/12 10:16:57;;;;;;;0.98;0.75;;;10.30;99.90;;;;;;5069974;28;20211;-44
2023/01/12 10:19:49;;;;;;;3.00;0.90;;;10.30;99.90;;;;;;5069448;28;20166;-44
2023/01/12 10:22:36;;;;;;;0.82;0.60;;;10.30;99.90;;;;;;5062783;28;20586;-45
2023/01/12 10:25:35;;;;;;;2.10;0.90;;;10.30;99.90;;;;;;5070043;28;20260;-44
2023/01/12 10:28:16;;;;;;;1.17;0.80;;;10.40;99.90;;;;;;5069891;28;20178;-44
2023/01/12 10:30:42;;;;;;;1.30;0.60;;;10.40;99.90;;;;;;5069693;28;20673;-44
2023/01/12 10:33:09;;;;;;;1.92;1.50;;;10.40;99.90;;;;;;5070115;28;20165;-45
2023/01/12 10:35:34;;;;;;;0.70;0.70;;;10.40;99.90;;;;;;5069955;28;20492;-45
2023/01/12 10:38:12;;;;;;;2.10;0.77;;;10.40;99.90;;;;;;5067995;28;20261;-44
2023/01/12 10:40:38;;;;;;;3.58;1.25;;;10.60;99.90;;;;;;5070024;28;20612;-45
2023/01/12 10:43:19;;;;;;;0.45;0.45;;;10.50;99.90;;;;;;5069709;28;20162;-44
2023/01/12 10:46:25;;;;;;;2.05;0.68;;;10.50;99.90;;;;;;5069667;28;20253;-45
2023/01/12 10:48:52;;;;;;;2.35;0.65;;;10.60;99.90;;;;;;5069670;28;20706;-45
2023/01/12 10:51:28;;;;;;;2.72;1.38;;;10.60;99.90;;;;;;5069717;28;20652;-45
2023/01/12 10:54:30;;;;;;;4.60;2.20;;;10.60;99.90;;;;;;5069887;28;20173;-45
2023/01/12 10:57:22;;;;;;;1.33;0.70;;;10.70;99.90;;;;;;5063117;28;20271;-45
2023/01/12 10:59:54;;;;;;;1.63;0.40;;;10.70;99.90;;;;;;5067660;28;20174;-44
2023/01/12 11:02:21;;;;;;;3.10;0.88;;;10.70;99.90;;;;;;5069433;28;20248;-45
2023/01/12 11:04:51;;;;;;;5.63;0.93;;;10.70;99.90;;;;;;5069846;28;20169;-44
2023/01/12 11:07:20;;;;;;;3.10;1.10;;;10.60;99.90;;;;;;5069529;28;20219;-44
2023/01/12 11:09:46;;;;;;;1.30;0.60;;;10.70;99.90;;;;;;5069596;28;20206;-44
2023/01/12 11:12:33;;;;;;;2.42;0.73;;;10.70;99.90;;;;;;5069726;28;20174;-45
2023/01/12 11:15:21;;;;;;;3.20;0.57;;;10.70;99.90;;;;;;5069838;28;20162;-44
2023/01/12 11:18:29;;;;;;;1.13;0.52;;;10.70;99.90;;;;;;5069037;28;20220;-45
2023/01/12 11:21:06;;;;;;;2.20;0.93;;;10.70;99.90;;;;;;5069752;28;20170;-44
2023/01/12 11:23:44;;;;;;;2.33;0.60;;;10.80;99.90;;;;;;5069498;28;20725;-44
2023/01/12 11:26:21;;;;;;;0.80;0.80;;;10.80;99.90;;;;;;5069848;28;20170;-45
2023/01/12 11:28:53;;;;;;;2.15;0.75;;;10.80;99.90;;;;;;5069270;28;20166;-44
2023/01/12 11:31:24;;;;;;;0.73;0.73;;;10.70;99.90;;;;;;5072730;28;20212;-45
2023/01/12 11:33:57;;;;;;;1.30;0.60;;;10.80;99.90;;;;;;5073047;28;20194;-45
2023/01/12 11:36:33;;;;;;;1.88;0.77;;;10.80;99.90;;;;;;5072893;28;20170;-44
2023/01/12 11:39:06;;;;;;;3.50;0.68;;;10.90;99.90;;;;;;5073098;28;20176;-44
2023/01/12 11:43:47;;;;;;;4.18;0.57;;;10.90;99.90;;;;;;5072707;28;20640;-44
2023/01/12 11:44:56;;;;;;;0.90;0.70;;;10.90;99.90;;;;;;5072558;28;20650;-44
2023/01/12 11:47:31;;;;;;;2.53;0.88;;;11.00;99.90;;;;;;5073091;28;20166;-45
2023/01/12 11:50:23;;;;;;;1.75;0.65;;;11.00;99.90;;;;;;5072843;28;20193;-44
2023/01/12 11:52:49;;;;;;;0.55;0.55;;;11.00;99.90;;;;;;5072738;28;20166;-45
2023/01/12 11:55:24;;;;;;;0.93;0.57;;;11.00;99.90;;;;;;5072542;28;20249;-45
2023/01/12 11:58:14;;;;;;;4.30;0.65;;;11.00;99.90;;;;;;5072661;28;20578;-45
2023/01/12 12:01:01;;;;;;;2.90;1.38;;;11.00;99.90;;;;;;5071046;28;20633;-45
2023/01/12 12:03:56;;;;;;;0.82;0.80;;;11.10;99.90;;;;;;5071084;28;20217;-45
2023/01/12 12:06:33;;;;;;;4.97;3.80;;;11.00;99.90;;;;;;5072063;28;20659;-45
2023/01/12 12:09:32;;;;;;;2.33;0.55;;;11.00;99.90;;;;;;5071630;28;20676;-45
2023/01/12 12:12:29;;;;;;;1.52;0.95;;;11.00;99.90;;;;;;5072241;28;20166;-45
2023/01/12 12:15:03;;;;;;;1.80;0.50;;;11.00;99.90;;;;;;5066261;28;20189;-44
2023/01/12 12:17:52;;;;;;;0.98;0.50;;;11.00;99.90;;;;;;5072354;28;20206;-44
2023/01/12 12:20:32;;;;;;;1.80;0.80;;;11.00;99.90;;;;;;5070568;28;20234;-45
2023/01/12 12:23:12;;;;;;;1.05;0.68;;;11.10;99.90;;;;;;5072199;28;20532;-44
2023/01/12 12:26:06;;;;;;;0.47;0.30;;;11.00;99.90;;;;;;5071813;28;20593;-45
2023/01/12 12:29:00;;;;;;;1.00;0.70;;;11.00;99.90;;;;;;5071746;28;20197;-45
2023/01/12 12:31:48;;;;;;;1.42;1.20;;;11.00;99.90;;;;;;5072085;28;20209;-45
2023/01/12 12:34:42;;;;;;;0.30;0.30;;;10.90;99.90;;;;;;5071574;28;20162;-44
2023/01/12 12:37:28;;;;;;;0.65;0.35;;;10.90;99.90;;;;;;5071487;28;20178;-45
2023/01/12 12:40:19;;;;;;;2.33;0.60;;;10.90;99.90;;;;;;5070980;28;20196;-45
2023/01/12 12:46:24;;;;;;;0.35;0.35;;;10.80;99.90;;;;;;5034248;28;20662;-45
2023/01/12 12:49:01;;;;;;;2.08;0.47;;;10.80;99.90;;;;;;5065381;28;20186;-45
2023/01/12 12:51:31;;;;;;;1.25;0.55;;;10.80;99.90;;;;;;5071831;28;20192;-45
2023/01/12 12:53:57;;;;;;;2.72;0.90;;;10.90;99.90;;;;;;5071214;28;20261;-45
2023/01/12 12:56:25;;;;;;;0.90;0.50;;;10.90;99.90;;;;;;5071085;28;20166;-45
2023/01/12 12:58:55;;;;;;;0.47;0.40;;;10.80;99.90;;;;;;5070960;28;20506;-45
2023/01/12 13:01:23;;;;;;;1.20;0.73;;;10.80;99.90;;;;;;5070883;28;20174;-44
2023/01/12 13:03:54;;;;;;;0.63;0.43;;;10.80;99.90;;;;;;5071055;28;21227;-44
2023/01/12 13:06:46;;;;;;;1.08;0.88;;;10.80;99.90;;;;;;5071455;28;20166;-45
2023/01/12 13:09:12;;;;;;;1.33;0.98;;;10.80;99.90;;;;;;5070968;28;20198;-44
2023/01/12 13:11:56;;;;;;;1.23;0.45;;;10.80;99.90;;;;;;5070727;28;20625;-44
2023/01/12 13:14:33;;;;;;;1.45;0.80;;;10.80;99.90;;;;;;5070817;28;20249;-44
2023/01/12 13:17:00;;;;;;;0.95;0.63;;;10.90;99.90;;;;;;5071050;28;20641;-45
2023/01/12 13:19:44;;;;;;;0.65;0.65;;;10.80;99.90;;;;;;5071067;28;20190;-44
2023/01/12 13:22:34;;;;;;;0.77;0.47;;;10.80;99.90;;;;;;5070379;28;20165;-44
2023/01/12 13:25:02;;;;;;;0.73;0.52;;;10.90;99.90;;;;;;5070570;28;20170;-44
2023/01/12 13:27:47;;;;;;;1.17;0.50;;;10.80;99.90;;;;;;5070792;28;20194;-44
2023/01/12 13:30:27;;;;;;;1.58;0.38;;;10.90;99.90;;;;;;5070701;28;20209;-45
2023/01/12 13:33:23;;;;;;;0.75;0.63;;;10.90;99.90;;;;;;5070274;28;20291;-45
2023/01/12 13:35:48;;;;;;;2.63;0.30;;;10.90;99.90;;;;;;5070171;28;20178;-45
2023/01/12 13:38:19;;;;;;;0.25;0.25;;;10.90;99.90;;;;;;5070349;28;20191;-45
2023/01/12 13:40:45;;;;;;;1.40;0.80;;;11.00;99.90;;;;;;5070227;28;20181;-45
2023/01/12 13:43:27;;;;;;;1.27;0.75;;;10.90;99.90;;;;;;5070427;28;20162;-45
2023/01/12 13:46:26;;;;;;;1.20;0.60;;;10.90;99.90;;;;;;5070350;28;20617;-45
2023/01/12 13:48:54;;;;;;;0.77;0.50;;;10.90;99.90;;;;;;5062103;28;20178;-45
2023/01/12 13:51:35;;;;;;;0.60;0.50;;;10.90;99.90;;;;;;5069932;28;20178;-45
2023/01/12 13:54:11;;;;;;;4.28;2.15;;;11.00;99.90;;;;;;5069111;28;20176;-45